Swansea, California
Current Conditions -  °F | °C
As of 6:56 PM on Friday 19 Dec 2014 (Local Time) from KBIH Reporting Station
Scattered Clouds Scattered Clouds  
Wind Chill: -3°   Ceiling: Unl
Heat Index:   Visibility: 9mi
Dew Point: -3°   Wind: 7mph
Humidity: 78%   Direction: 80°E
Pressure: 30.16"   Gusts: NA
Location:  36.6126°N, 118.162°W
Report Text: KBIH 200256Z AUTO 08006KT 9SM SCT100 01/M03 A3016 RMK AO2 SLP221 T00061028 53002
Loading
Personal Weather Stations






























Interactive Weather Map New forecast layout! Learn more

10-Day Weather Forecast

Advertisements
Track Severe Weather on mobile